createdAt,value
2022-09-04T00:01:20.423Z,4.03
2022-09-04T00:02:40.863Z,3.70
2022-09-04T00:03:51.206Z,3.80
2022-09-04T00:05:25.305Z,3.47
2022-09-04T00:06:34.330Z,3.63
2022-09-04T00:08:52.683Z,3.40
2022-09-04T00:09:54.145Z,3.60
2022-09-04T00:11:15.861Z,4.43
2022-09-04T00:12:26.764Z,3.90
2022-09-04T00:13:33.259Z,3.97
2022-09-04T00:14:47.059Z,3.67
2022-09-04T00:16:07.673Z,3.55
2022-09-04T00:17:28.294Z,3.50
2022-09-04T00:18:54.295Z,3.60
2022-09-04T00:20:01.517Z,3.30
2022-09-04T00:21:06.061Z,3.80
2022-09-04T00:22:37.642Z,3.70
2022-09-04T00:24:02.702Z,3.97
2022-09-04T00:25:10.466Z,3.53
2022-09-04T00:26:21.957Z,3.83
2022-09-04T00:27:27.196Z,4.05
2022-09-04T00:28:42.831Z,4.10
2022-09-04T00:29:48.621Z,4.03
2022-09-04T00:30:59.197Z,3.90
2022-09-04T00:32:09.675Z,4.10
2022-09-04T00:33:19.213Z,3.70
2022-09-04T00:34:39.729Z,3.70
2022-09-04T00:35:48.746Z,3.70
2022-09-04T00:38:21.070Z,3.60
2022-09-04T00:39:33.925Z,3.40
2022-09-04T00:40:44.739Z,3.70
2022-09-04T00:42:04.714Z,3.67
2022-09-04T00:43:36.589Z,3.70
2022-09-04T00:44:44.046Z,4.22
2022-09-04T00:46:31.066Z,3.55
2022-09-04T00:47:57.923Z,3.42
2022-09-04T00:49:31.722Z,4.30
2022-09-04T00:50:52.338Z,12.27
2022-09-04T00:52:03.354Z,22.80
2022-09-04T00:53:08.502Z,23.20
2022-09-04T00:54:19.329Z,12.23
2022-09-04T00:55:22.111Z,5.10
2022-09-04T00:56:41.359Z,4.22
2022-09-04T00:58:09.804Z,3.75
2022-09-04T00:59:38.059Z,3.70
2022-09-04T01:00:40.099Z,3.40
2022-09-04T01:01:44.898Z,3.80
2022-09-04T01:03:00.274Z,3.70
2022-09-04T01:04:17.788Z,3.80
2022-09-04T01:05:40.565Z,3.65
2022-09-04T01:06:48.440Z,3.50
2022-09-04T01:08:20.791Z,3.60
2022-09-04T01:09:34.620Z,3.55
2022-09-04T01:10:58.663Z,3.53
2022-09-04T01:12:12.188Z,3.20
2022-09-04T01:13:34.219Z,3.58
2022-09-04T01:14:46.517Z,3.53
2022-09-04T01:16:13.905Z,3.30
2022-09-04T01:17:23.242Z,3.30
2022-09-04T01:18:44.338Z,2.97
2022-09-04T01:20:03.801Z,3.53
2022-09-04T01:21:43.685Z,3.30
2022-09-04T01:23:18.969Z,3.22
2022-09-04T01:24:48.474Z,3.55
2022-09-04T01:26:01.048Z,3.70
2022-09-04T01:27:49.761Z,3.85
2022-09-04T01:29:24.159Z,4.30
2022-09-04T01:30:25.847Z,3.42
2022-09-04T01:31:52.019Z,3.47
2022-09-04T01:33:08.096Z,3.88
2022-09-04T01:34:47.221Z,3.72
2022-09-04T01:36:00.571Z,3.70
2022-09-04T01:37:30.058Z,3.80
2022-09-04T01:38:34.745Z,3.63
2022-09-04T01:39:39.872Z,3.72
2022-09-04T01:40:49.823Z,3.50
2022-09-04T01:42:05.438Z,3.60
2022-09-04T01:43:11.588Z,3.67
2022-09-04T01:44:13.171Z,3.58
2022-09-04T01:45:30.236Z,3.53
2022-09-04T01:46:58.197Z,3.53
2022-09-04T01:48:04.124Z,3.35
2022-09-04T01:49:20.927Z,3.50
2022-09-04T01:50:26.591Z,3.40
2022-09-04T01:52:00.757Z,3.40
2022-09-04T01:53:04.876Z,3.40
2022-09-04T01:54:15.803Z,3.30
2022-09-04T01:55:41.838Z,3.75
2022-09-04T01:56:48.387Z,42.30
2022-09-04T01:58:17.603Z,44.45
2022-09-04T01:59:53.656Z,36.00
2022-09-04T02:01:14.221Z,22.25
2022-09-04T02:02:53.258Z,4.60
2022-09-04T02:03:58.030Z,3.20
2022-09-04T02:05:13.617Z,3.95
2022-09-04T02:06:22.173Z,3.22
2022-09-04T02:07:33.968Z,3.55
2022-09-04T02:08:52.648Z,3.75
2022-09-04T02:10:02.555Z,3.60
2022-09-04T02:11:28.038Z,3.20
2022-09-04T02:13:07.387Z,3.88
2022-09-04T02:14:14.346Z,3.35
2022-09-04T02:15:22.945Z,3.22
2022-09-04T02:16:37.253Z,3.00
2022-09-04T02:17:57.858Z,3.53
2022-09-04T02:19:12.252Z,3.97
2022-09-04T02:20:29.134Z,3.33
2022-09-04T02:21:36.760Z,3.63
2022-09-04T02:23:15.430Z,3.45
2022-09-04T02:24:30.242Z,3.45
2022-09-04T02:25:41.539Z,3.55
2022-09-04T02:27:15.955Z,3.47
2022-09-04T02:28:54.374Z,3.30
2022-09-04T02:30:10.256Z,3.45
2022-09-04T02:31:34.484Z,3.85
2022-09-04T02:32:59.610Z,3.70
2022-09-04T02:34:28.442Z,3.40
2022-09-04T02:35:53.631Z,3.20
2022-09-04T02:37:07.176Z,3.60
2022-09-04T02:38:08.589Z,3.28
2022-09-04T02:39:25.182Z,4.00
2022-09-04T02:40:50.937Z,3.03
2022-09-04T02:42:14.450Z,3.50
2022-09-04T02:43:16.377Z,3.80
2022-09-04T02:44:26.835Z,3.88
2022-09-04T02:45:47.901Z,3.25
2022-09-04T02:46:55.167Z,3.50
2022-09-04T02:48:27.091Z,3.70
2022-09-04T02:49:48.511Z,3.40
2022-09-04T02:51:18.373Z,3.50
2022-09-04T02:52:38.262Z,3.38
2022-09-04T02:53:59.288Z,3.10
2022-09-04T02:55:37.746Z,3.38
2022-09-04T02:57:00.956Z,3.13
2022-09-04T02:58:33.587Z,3.25
2022-09-04T02:59:47.282Z,3.40
2022-09-04T03:01:07.785Z,3.50
2022-09-04T03:02:19.372Z,3.85
2022-09-04T03:03:40.695Z,2.83
2022-09-04T03:05:51.486Z,2.83
2022-09-04T03:07:03.139Z,3.75
2022-09-04T03:08:23.768Z,3.25
2022-09-04T03:09:33.712Z,3.42
2022-09-04T03:11:25.008Z,3.38
2022-09-04T03:12:33.161Z,3.42
2022-09-04T03:13:46.668Z,3.55
2022-09-04T03:15:14.681Z,3.55
2022-09-04T03:16:28.795Z,3.53
2022-09-04T03:17:52.295Z,3.50
2022-09-04T03:19:10.468Z,3.63
2022-09-04T03:20:22.726Z,3.83
2022-09-04T03:21:32.989Z,3.33
2022-09-04T03:22:48.627Z,3.53
2022-09-04T03:24:02.871Z,3.53
2022-09-04T03:25:23.334Z,3.42
2022-09-04T03:26:27.587Z,3.55
2022-09-04T03:27:33.560Z,3.70
2022-09-04T03:28:43.521Z,3.40
2022-09-04T03:29:57.255Z,3.60
2022-09-04T03:31:20.762Z,3.38
2022-09-04T03:32:30.831Z,3.95
2022-09-04T03:33:46.636Z,3.40
2022-09-04T03:35:06.741Z,3.53
2022-09-04T03:36:19.032Z,3.28
2022-09-04T03:37:48.719Z,3.08
2022-09-04T03:39:08.977Z,3.40
2022-09-04T03:40:10.365Z,3.40
2022-09-04T03:41:33.102Z,3.30
2022-09-04T03:43:12.718Z,3.10
2022-09-04T03:44:27.905Z,3.70
2022-09-04T03:47:03.480Z,3.85
2022-09-04T03:48:08.208Z,3.47
2022-09-04T03:49:27.864Z,3.13
2022-09-04T03:50:44.714Z,3.72
2022-09-04T03:52:18.132Z,3.25
2022-09-04T03:53:34.735Z,3.80
2022-09-04T03:54:50.971Z,3.55
2022-09-04T03:56:12.262Z,3.83
2022-09-04T03:59:06.750Z,3.60
2022-09-04T04:00:11.664Z,3.42
2022-09-04T04:02:08.675Z,3.35
2022-09-04T04:03:41.815Z,3.60
2022-09-04T04:05:02.882Z,3.65
2022-09-04T04:06:18.237Z,3.60
2022-09-04T04:07:38.475Z,4.00
2022-09-04T04:08:46.064Z,4.15
2022-09-04T04:10:20.198Z,3.92
2022-09-04T04:11:30.755Z,3.70
2022-09-04T04:13:02.685Z,3.58
2022-09-04T04:14:21.658Z,4.03
2022-09-04T04:15:27.706Z,3.72
2022-09-04T04:16:40.532Z,3.75
2022-09-04T04:17:57.149Z,3.85
2022-09-04T04:19:17.418Z,4.03
2022-09-04T04:20:52.729Z,3.55
2022-09-04T04:22:15.457Z,3.45
2022-09-04T04:23:56.589Z,3.58
2022-09-04T04:25:10.485Z,3.70
2022-09-04T04:26:40.570Z,3.97
2022-09-04T04:28:00.863Z,3.60
2022-09-04T04:29:02.831Z,4.00
2022-09-04T04:30:14.428Z,3.65
2022-09-04T04:31:34.525Z,3.72
2022-09-04T04:32:49.887Z,4.07
2022-09-04T04:34:01.079Z,3.42
2022-09-04T04:35:12.928Z,4.13
2022-09-04T04:36:26.313Z,3.55
2022-09-04T04:39:19.150Z,3.90
2022-09-04T04:40:45.698Z,3.78
2022-09-04T04:42:07.591Z,3.80
2022-09-04T04:43:21.849Z,3.80
2022-09-04T04:45:07.839Z,3.88
2022-09-04T04:46:34.613Z,3.88
2022-09-04T04:48:18.427Z,3.78
2022-09-04T04:49:39.119Z,3.45
2022-09-04T04:51:23.037Z,3.70
2022-09-04T04:53:08.749Z,3.30
2022-09-04T04:54:28.685Z,3.60
2022-09-04T04:55:57.586Z,4.05
2022-09-04T04:57:25.522Z,3.40
2022-09-04T04:58:58.810Z,3.33
2022-09-04T05:00:07.413Z,3.65
2022-09-04T05:01:12.193Z,3.80
2022-09-04T05:02:24.077Z,3.70
2022-09-04T05:03:46.504Z,3.70
2022-09-04T05:05:15.851Z,4.03
2022-09-04T05:06:36.255Z,3.40
2022-09-04T05:08:08.067Z,3.53
2022-09-04T05:09:33.871Z,4.07
2022-09-04T05:10:47.222Z,3.88
2022-09-04T05:11:48.931Z,3.92
2022-09-04T05:13:17.938Z,3.53
2022-09-04T05:14:44.216Z,3.88
2022-09-04T05:16:08.387Z,3.72
2022-09-04T05:17:27.232Z,3.60
2022-09-04T05:18:40.042Z,3.53
2022-09-04T05:20:06.242Z,4.28
2022-09-04T05:21:24.993Z,3.42
2022-09-04T05:22:34.622Z,4.03
2022-09-04T05:23:36.096Z,4.00
2022-09-04T05:24:37.501Z,3.45
2022-09-04T05:26:00.087Z,3.90
2022-09-04T05:27:30.411Z,3.78
2022-09-04T05:28:57.874Z,3.78
2022-09-04T05:31:32.456Z,3.92
2022-09-04T05:32:43.505Z,3.15
2022-09-04T05:33:59.625Z,3.35
2022-09-04T05:35:26.710Z,3.78
2022-09-04T05:36:49.027Z,3.55
2022-09-04T05:38:01.997Z,3.80
2022-09-04T05:39:08.292Z,3.60
2022-09-04T05:40:56.089Z,3.63
2022-09-04T05:42:19.092Z,3.78
2022-09-04T05:43:29.713Z,3.80
2022-09-04T05:44:36.384Z,3.65
2022-09-04T05:46:04.211Z,3.78
2022-09-04T05:47:54.257Z,3.58
2022-09-04T05:49:01.321Z,3.70
2022-09-04T05:50:24.525Z,3.97
2022-09-04T05:51:41.088Z,3.50
2022-09-04T05:53:07.581Z,3.67
2022-09-04T05:54:33.965Z,4.22
2022-09-04T05:55:41.581Z,3.65
2022-09-04T05:57:11.075Z,4.10
2022-09-04T05:58:34.432Z,3.63
2022-09-04T05:59:45.491Z,3.75
2022-09-04T06:01:07.285Z,5.50
2022-09-04T06:02:28.483Z,7.78
2022-09-04T06:04:52.576Z,20.10
2022-09-04T06:06:12.818Z,20.38
2022-09-04T06:07:21.811Z,9.63
2022-09-04T06:10:06.451Z,4.10
2022-09-04T06:11:26.564Z,3.40
2022-09-04T06:12:50.548Z,3.40
2022-09-04T06:14:24.772Z,3.80
2022-09-04T06:15:46.499Z,3.80
2022-09-04T06:16:54.056Z,3.00
2022-09-04T06:18:17.359Z,3.55
2022-09-04T06:19:37.510Z,3.67
2022-09-04T06:20:39.038Z,3.63
2022-09-04T06:21:43.156Z,3.60
2022-09-04T06:23:22.975Z,3.30
2022-09-04T06:24:45.765Z,3.40
2022-09-04T06:26:09.345Z,3.60
2022-09-04T06:27:37.107Z,3.58
2022-09-04T06:29:05.942Z,3.33
2022-09-04T06:30:16.260Z,3.40
2022-09-04T06:31:20.612Z,3.40
2022-09-04T06:32:43.905Z,3.70
2022-09-04T06:33:51.288Z,3.80
2022-09-04T06:35:17.749Z,3.45
2022-09-04T06:36:42.197Z,3.80
2022-09-04T06:38:21.369Z,3.90
2022-09-04T06:39:40.391Z,3.28
2022-09-04T06:41:00.711Z,3.35
2022-09-04T06:42:29.951Z,3.80
2022-09-04T06:43:49.933Z,3.60
2022-09-04T06:44:58.951Z,3.55
2022-09-04T06:46:16.247Z,4.40
2022-09-04T06:47:26.833Z,3.10
2022-09-04T06:48:58.146Z,3.20
2022-09-04T06:50:11.935Z,3.80
2022-09-04T06:51:27.366Z,3.80
2022-09-04T06:53:04.202Z,3.95
2022-09-04T06:54:36.635Z,3.40
2022-09-04T06:55:51.541Z,3.58
2022-09-04T06:57:05.050Z,3.80
2022-09-04T06:58:43.096Z,4.00
2022-09-04T07:00:03.998Z,4.18
2022-09-04T07:01:12.347Z,4.57
2022-09-04T07:02:45.251Z,8.95
2022-09-04T07:04:10.371Z,4.60
2022-09-04T07:05:22.272Z,4.20
2022-09-04T07:06:26.758Z,4.35
2022-09-04T07:07:32.337Z,4.40
2022-09-04T07:08:42.878Z,3.47
2022-09-04T07:09:53.409Z,3.70
2022-09-04T07:11:07.472Z,3.70
2022-09-04T07:12:31.144Z,3.70
2022-09-04T07:14:04.435Z,3.70
2022-09-04T07:15:31.110Z,3.17
2022-09-04T07:17:05.527Z,3.75
2022-09-04T07:18:19.737Z,4.20
2022-09-04T07:19:30.572Z,3.95
2022-09-04T07:21:03.194Z,4.15
2022-09-04T07:22:38.391Z,4.20
2022-09-04T07:23:58.960Z,4.00
2022-09-04T07:25:23.659Z,4.15
2022-09-04T07:26:49.185Z,3.70
2022-09-04T07:28:26.036Z,3.97
2022-09-04T07:29:50.331Z,4.00
2022-09-04T07:31:13.562Z,4.13
2022-09-04T07:32:34.418Z,3.80
2022-09-04T07:34:03.397Z,3.90
2022-09-04T07:35:16.782Z,3.83
2022-09-04T07:36:29.562Z,3.78
2022-09-04T07:38:52.875Z,3.70
2022-09-04T07:40:17.311Z,3.75
2022-09-04T07:41:23.324Z,4.30
2022-09-04T07:42:38.675Z,3.60
2022-09-04T07:44:01.296Z,4.07
2022-09-04T07:45:22.461Z,3.70
2022-09-04T07:46:47.044Z,4.50
2022-09-04T07:48:23.200Z,3.95
2022-09-04T07:49:37.214Z,4.13
2022-09-04T07:51:05.903Z,3.50
2022-09-04T07:52:22.753Z,4.10
2022-09-04T07:54:04.542Z,3.85
2022-09-04T07:55:17.520Z,3.53
2022-09-04T07:56:48.149Z,3.90
2022-09-04T07:58:25.744Z,3.88
2022-09-04T07:59:47.904Z,3.35
2022-09-04T08:01:17.212Z,3.65
2022-09-04T08:02:35.625Z,4.30
2022-09-04T08:04:15.050Z,3.03
2022-09-04T08:06:37.837Z,3.40
2022-09-04T08:07:39.300Z,4.07
2022-09-04T08:09:02.055Z,3.83
2022-09-04T08:10:24.341Z,3.92
2022-09-04T08:11:25.780Z,3.67
2022-09-04T08:12:49.010Z,4.07
2022-09-04T08:14:12.389Z,3.72
2022-09-04T08:15:30.498Z,3.67
2022-09-04T08:16:43.987Z,3.53
2022-09-04T08:17:57.929Z,4.10
2022-09-04T08:19:15.579Z,2.95
2022-09-04T08:20:39.392Z,3.78
2022-09-04T08:21:43.786Z,3.80
2022-09-04T08:23:04.661Z,4.32
2022-09-04T08:24:30.930Z,3.45
2022-09-04T08:26:02.693Z,3.50
2022-09-04T08:27:36.641Z,3.90
2022-09-04T08:29:23.614Z,3.40
2022-09-04T08:31:37.028Z,3.58
2022-09-04T08:32:57.529Z,4.40
2022-09-04T08:34:38.129Z,3.35
2022-09-04T08:35:48.803Z,4.15
2022-09-04T08:37:06.384Z,3.83
2022-09-04T08:38:41.855Z,3.00
2022-09-04T08:39:54.723Z,4.07
2022-09-04T08:41:18.143Z,4.00
2022-09-04T08:42:47.668Z,2.90
2022-09-04T08:44:13.366Z,3.58
2022-09-04T08:45:48.467Z,3.95
2022-09-04T08:47:18.627Z,4.40
2022-09-04T08:48:58.267Z,3.53
2022-09-04T08:50:32.083Z,2.92
2022-09-04T08:51:42.715Z,2.83
2022-09-04T08:53:06.092Z,3.45
2022-09-04T08:54:13.175Z,10.68
2022-09-04T08:55:46.932Z,6.35
2022-09-04T08:56:51.874Z,4.85
2022-09-04T08:58:15.351Z,3.80
2022-09-04T08:59:53.980Z,4.10
2022-09-04T09:01:05.194Z,3.40
2022-09-04T09:02:12.577Z,3.50
2022-09-04T09:03:34.676Z,3.20
2022-09-04T09:04:48.279Z,3.10
2022-09-04T09:06:14.420Z,3.35
2022-09-04T09:07:25.203Z,3.42
2022-09-04T09:08:45.267Z,3.10
2022-09-04T09:10:19.038Z,3.40
2022-09-04T09:11:45.471Z,2.75
2022-09-04T09:13:05.483Z,3.10
2022-09-04T09:14:43.577Z,5.70
2022-09-04T09:16:09.610Z,3.88
2022-09-04T09:17:12.548Z,3.17
2022-09-04T09:18:51.525Z,3.38
2022-09-04T09:20:19.779Z,2.88
2022-09-04T09:21:49.491Z,3.08
2022-09-04T09:23:37.952Z,2.80
2022-09-04T09:24:53.138Z,2.50
2022-09-04T09:26:06.585Z,3.00
2022-09-04T09:27:14.228Z,3.10
2022-09-04T09:28:37.948Z,2.90
2022-09-04T09:29:57.941Z,2.67
2022-09-04T09:31:34.459Z,2.30
2022-09-04T09:33:03.066Z,2.50
2022-09-04T09:34:35.522Z,2.53
2022-09-04T09:36:07.766Z,2.97
2022-09-04T09:37:28.194Z,3.25
2022-09-04T09:38:57.229Z,3.03
2022-09-04T09:40:16.921Z,2.83
2022-09-04T09:41:18.393Z,3.97
2022-09-04T09:42:41.158Z,6.88
2022-09-04T09:44:04.657Z,3.30
2022-09-04T09:45:44.649Z,3.25
2022-09-04T09:47:27.916Z,3.60
2022-09-04T09:48:29.312Z,3.30
2022-09-04T09:49:58.189Z,3.80
2022-09-04T09:51:09.248Z,2.90
2022-09-04T09:52:38.267Z,2.70
2022-09-04T09:53:50.017Z,2.88
2022-09-04T09:54:58.849Z,2.20
2022-09-04T09:56:46.600Z,2.40
2022-09-04T09:58:23.169Z,2.28
2022-09-04T09:59:38.419Z,2.95
2022-09-04T10:01:05.285Z,3.08
2022-09-04T10:02:47.006Z,2.60
2022-09-04T10:04:18.818Z,3.00
2022-09-04T10:05:54.932Z,3.03
2022-09-04T10:07:24.493Z,2.97
2022-09-04T10:08:47.901Z,3.05
2022-09-04T10:09:55.405Z,2.90
2022-09-04T10:11:18.460Z,2.78
2022-09-04T10:12:41.594Z,3.03
2022-09-04T10:14:02.412Z,3.22
2022-09-04T10:15:35.485Z,3.85
2022-09-04T10:16:45.658Z,3.53
2022-09-04T10:18:03.003Z,9.38
2022-09-04T10:19:35.481Z,4.03
2022-09-04T10:20:53.950Z,3.13
2022-09-04T10:22:10.466Z,3.28
2022-09-04T10:23:26.691Z,3.15
2022-09-04T10:24:28.231Z,2.97
2022-09-04T10:25:48.856Z,3.17
2022-09-04T10:27:24.239Z,2.40
2022-09-04T10:29:05.250Z,2.60
2022-09-04T10:30:10.266Z,2.92
2022-09-04T10:31:24.012Z,3.75
2022-09-04T10:32:33.099Z,2.40
2022-09-04T10:34:02.124Z,2.35
2022-09-04T10:35:30.974Z,5.35
2022-09-04T10:36:38.692Z,4.10
2022-09-04T10:38:21.035Z,5.72
2022-09-04T10:39:48.417Z,3.00
2022-09-04T10:41:09.427Z,2.50
2022-09-04T10:43:01.977Z,2.50
2022-09-04T10:44:38.694Z,2.10
2022-09-04T10:45:47.510Z,2.20
2022-09-04T10:48:08.860Z,2.20
2022-09-04T10:50:01.114Z,2.20
2022-09-04T10:51:14.634Z,2.30
2022-09-04T10:52:34.640Z,2.20
2022-09-04T10:54:08.118Z,2.35
2022-09-04T10:55:19.913Z,2.38
2022-09-04T10:56:56.826Z,2.53
2022-09-04T10:58:17.282Z,2.20
2022-09-04T10:59:27.792Z,2.10
2022-09-04T11:00:51.294Z,2.20
2022-09-04T11:02:08.943Z,2.30
2022-09-04T11:03:44.760Z,2.55
2022-09-04T11:05:20.343Z,2.10
2022-09-04T11:06:45.578Z,2.22
2022-09-04T11:08:24.039Z,2.28
2022-09-04T11:09:59.477Z,1.83
2022-09-04T11:11:18.948Z,1.90
2022-09-04T11:12:45.981Z,1.70
2022-09-04T11:14:03.702Z,1.85
2022-09-04T11:15:17.517Z,1.90
2022-09-04T11:16:57.260Z,1.95
2022-09-04T11:18:28.795Z,1.90
2022-09-04T11:20:17.552Z,1.95
2022-09-04T11:22:09.122Z,2.40
2022-09-04T11:23:44.722Z,2.20
2022-09-04T11:25:19.141Z,1.50
2022-09-04T11:27:06.027Z,1.70
2022-09-04T11:28:28.158Z,2.10
2022-09-04T11:30:07.507Z,1.95
2022-09-04T11:31:34.591Z,2.17
2022-09-04T11:33:04.526Z,1.85
2022-09-04T11:34:33.154Z,2.10
2022-09-04T11:36:05.774Z,2.17
2022-09-04T11:37:21.291Z,2.10
2022-09-04T11:38:48.987Z,1.88
2022-09-04T11:39:53.522Z,2.55
2022-09-04T11:41:45.968Z,1.70
2022-09-04T11:43:25.239Z,2.00
2022-09-04T11:44:46.398Z,1.80
2022-09-04T11:47:23.669Z,1.60
2022-09-04T11:48:53.608Z,1.60
2022-09-04T11:50:14.457Z,1.60
2022-09-04T11:51:34.391Z,1.60
2022-09-04T11:52:47.846Z,1.60
2022-09-04T11:54:10.505Z,1.60
2022-09-04T11:55:28.920Z,1.70
2022-09-04T11:57:07.603Z,1.73
2022-09-04T11:58:18.603Z,1.85
2022-09-04T12:00:12.165Z,1.70
2022-09-04T12:01:26.946Z,1.55
2022-09-04T12:02:40.784Z,1.67
2022-09-04T12:03:49.471Z,1.60
2022-09-04T12:04:56.926Z,1.70
2022-09-04T12:06:51.176Z,1.55
2022-09-04T12:08:28.500Z,1.40
2022-09-04T12:10:05.283Z,1.70
2022-09-04T12:11:38.620Z,1.70
2022-09-04T12:14:02.754Z,1.65
2022-09-04T12:15:28.860Z,1.80
2022-09-04T12:16:55.272Z,1.55
2022-09-04T12:18:02.876Z,1.73
2022-09-04T12:19:16.452Z,1.65
2022-09-04T12:20:36.349Z,1.50
2022-09-04T12:22:09.361Z,1.80
2022-09-04T12:23:45.285Z,1.60
2022-09-04T12:24:49.715Z,1.58
2022-09-04T12:26:18.034Z,1.60
2022-09-04T12:27:57.040Z,1.40
2022-09-04T12:29:12.905Z,1.70
2022-09-04T12:30:39.692Z,1.70
2022-09-04T12:31:57.729Z,1.60
2022-09-04T12:33:19.987Z,1.70
2022-09-04T12:34:30.415Z,1.58
2022-09-04T12:35:45.898Z,1.73
2022-09-04T12:37:27.132Z,1.63
2022-09-04T12:39:01.709Z,1.75
2022-09-04T12:40:41.694Z,2.83
2022-09-04T12:41:50.021Z,1.50
2022-09-04T12:43:16.321Z,1.70
2022-09-04T12:44:41.324Z,1.83
2022-09-04T12:46:06.173Z,2.20
2022-09-04T12:47:26.113Z,1.38
2022-09-04T12:48:28.173Z,1.70
2022-09-04T12:50:07.024Z,1.60
2022-09-04T12:51:26.540Z,1.60
2022-09-04T12:52:52.281Z,1.50
2022-09-04T12:54:12.959Z,1.60
2022-09-04T12:55:35.919Z,1.60
2022-09-04T12:57:15.966Z,1.50
2022-09-04T12:58:24.598Z,1.70
2022-09-04T12:59:41.746Z,1.60
2022-09-04T13:00:56.241Z,1.77
2022-09-04T13:02:28.470Z,1.60
2022-09-04T13:03:42.895Z,1.52
2022-09-04T13:05:06.091Z,1.58
2022-09-04T13:06:37.688Z,1.45
2022-09-04T13:07:56.029Z,1.42
2022-09-04T13:09:05.418Z,1.50
2022-09-04T13:10:21.786Z,1.45
2022-09-04T13:11:49.179Z,1.48
2022-09-04T13:13:03.560Z,1.30
2022-09-04T13:14:40.042Z,1.48
2022-09-04T13:15:58.153Z,1.50
2022-09-04T13:17:24.869Z,1.60
2022-09-04T13:18:43.587Z,1.60
2022-09-04T13:20:01.966Z,1.40
2022-09-04T13:21:28.545Z,1.40
2022-09-04T13:23:01.260Z,1.40
2022-09-04T13:24:09.418Z,1.48
2022-09-04T13:25:42.280Z,1.58
2022-09-04T13:27:07.637Z,1.50
2022-09-04T13:28:19.729Z,1.73
2022-09-04T13:29:42.283Z,1.50
2022-09-04T13:31:00.446Z,1.55
2022-09-04T13:32:17.190Z,1.63
2022-09-04T13:33:39.990Z,11.48
2022-09-04T13:35:17.249Z,1.98
2022-09-04T13:36:41.342Z,1.50
2022-09-04T13:37:56.041Z,1.60
2022-09-04T13:39:20.793Z,1.60
2022-09-04T13:41:02.204Z,1.33
2022-09-04T13:42:18.604Z,1.58
2022-09-04T13:43:20.461Z,1.60
2022-09-04T13:44:48.013Z,1.65
2022-09-04T13:45:54.007Z,1.60
2022-09-04T13:47:02.698Z,1.52
2022-09-04T13:48:10.411Z,1.52
2022-09-04T13:49:18.128Z,1.40
2022-09-04T13:50:26.208Z,1.63
2022-09-04T13:51:35.967Z,1.40
2022-09-04T13:52:53.443Z,1.60
2022-09-04T13:54:04.121Z,1.63
2022-09-04T13:55:25.185Z,1.80
2022-09-04T13:57:57.371Z,1.40
2022-09-04T13:59:08.638Z,1.30
2022-09-04T14:00:12.001Z,1.27
2022-09-04T14:01:17.664Z,1.40
2022-09-04T14:02:25.340Z,1.50
2022-09-04T14:03:44.325Z,1.63
2022-09-04T14:04:51.075Z,1.60
2022-09-04T14:05:52.928Z,1.55
2022-09-04T14:07:02.423Z,1.50
2022-09-04T14:08:06.665Z,1.58
2022-09-04T14:09:08.838Z,1.45
2022-09-04T14:10:14.905Z,1.40
2022-09-04T14:11:32.213Z,1.70
2022-09-04T14:13:04.387Z,1.80
2022-09-04T14:14:24.596Z,1.63
2022-09-04T14:15:32.812Z,1.73
2022-09-04T14:16:36.705Z,1.70
2022-09-04T14:17:51.254Z,1.50
2022-09-04T14:19:31.154Z,1.80
2022-09-04T14:21:01.456Z,1.85
2022-09-04T14:22:09.036Z,1.48
2022-09-04T14:23:20.269Z,1.45
2022-09-04T14:24:56.573Z,1.60
2022-09-04T14:26:04.112Z,1.55
2022-09-04T14:27:23.424Z,1.50
2022-09-04T14:28:38.037Z,1.65
2022-09-04T14:29:43.203Z,1.60
2022-09-04T14:31:03.089Z,1.55
2022-09-04T14:32:28.632Z,1.48
2022-09-04T14:33:53.533Z,1.60
2022-09-04T14:35:08.803Z,1.58
2022-09-04T14:36:35.371Z,1.40
2022-09-04T14:38:01.508Z,1.50
2022-09-04T14:39:27.560Z,1.40
2022-09-04T14:40:44.841Z,1.73
2022-09-04T14:42:07.869Z,1.50
2022-09-04T14:43:26.668Z,1.65
2022-09-04T14:44:44.111Z,1.50
2022-09-04T14:46:02.919Z,1.48
2022-09-04T14:47:37.019Z,1.30
2022-09-04T14:48:44.508Z,1.70
2022-09-04T14:49:50.618Z,1.35
2022-09-04T14:50:56.121Z,1.50
2022-09-04T14:52:08.571Z,1.25
2022-09-04T14:53:10.445Z,1.30
2022-09-04T14:54:18.625Z,1.50
2022-09-04T14:55:30.300Z,1.50
2022-09-04T14:56:40.021Z,1.60
2022-09-04T14:57:55.279Z,1.60
2022-09-04T14:59:12.861Z,1.50
2022-09-04T15:00:19.848Z,1.35
2022-09-04T15:01:24.351Z,1.40
2022-09-04T15:02:35.941Z,1.35
2022-09-04T15:03:51.306Z,1.30
2022-09-04T15:05:03.401Z,1.60
2022-09-04T15:06:17.312Z,1.60
2022-09-04T15:07:39.565Z,1.50
2022-09-04T15:08:41.205Z,1.40
2022-09-04T15:09:46.933Z,1.40
2022-09-04T15:10:53.365Z,1.48
2022-09-04T15:12:23.095Z,1.63
2022-09-04T15:13:27.983Z,1.60
2022-09-04T15:14:36.253Z,1.45
2022-09-04T15:15:44.719Z,1.60
2022-09-04T15:16:50.710Z,1.42
2022-09-04T15:18:04.243Z,1.58
2022-09-04T15:19:46.519Z,1.70
2022-09-04T15:20:56.407Z,1.80
2022-09-04T15:22:13.669Z,1.50
2022-09-04T15:23:27.531Z,1.65
2022-09-04T15:24:44.505Z,1.67
2022-09-04T15:26:00.664Z,1.70
2022-09-04T15:27:05.567Z,1.60
2022-09-04T15:28:17.304Z,1.55
2022-09-04T15:29:22.882Z,1.50
2022-09-04T15:30:29.755Z,1.58
2022-09-04T15:31:40.385Z,1.40
2022-09-04T15:32:43.062Z,1.42
2022-09-04T15:33:47.689Z,1.40
2022-09-04T15:35:21.266Z,1.60
2022-09-04T15:36:24.439Z,1.63
2022-09-04T15:37:28.309Z,1.40
2022-09-04T15:38:31.935Z,1.60
2022-09-04T15:39:45.024Z,1.50
2022-09-04T15:41:17.727Z,1.55
2022-09-04T15:42:57.914Z,1.42
2022-09-04T15:44:29.973Z,1.70
2022-09-04T15:45:50.546Z,1.60
2022-09-04T15:47:19.825Z,1.70
2022-09-04T15:48:33.059Z,1.80
2022-09-04T15:50:20.310Z,1.80
2022-09-04T15:51:51.460Z,1.73
2022-09-04T15:53:14.250Z,1.60
2022-09-04T15:54:18.451Z,1.60
2022-09-04T15:55:28.516Z,1.70
2022-09-04T15:56:45.778Z,1.75
2022-09-04T15:58:13.126Z,1.65
2022-09-04T15:59:29.618Z,1.70
2022-09-04T16:00:36.697Z,1.60
2022-09-04T16:02:07.949Z,1.60
2022-09-04T16:03:22.295Z,1.55
2022-09-04T16:04:39.839Z,1.70
2022-09-04T16:05:51.289Z,1.67
2022-09-04T16:07:04.641Z,1.52
2022-09-04T16:08:24.689Z,1.80
2022-09-04T16:09:47.315Z,1.80
2022-09-04T16:11:07.182Z,1.60
2022-09-04T16:12:11.701Z,1.73
2022-09-04T16:13:25.450Z,1.98
2022-09-04T16:14:35.837Z,1.60
2022-09-04T16:15:45.127Z,1.70
2022-09-04T16:16:56.084Z,1.88
2022-09-04T16:18:08.851Z,1.77
2022-09-04T16:19:27.067Z,1.70
2022-09-04T16:20:48.570Z,1.65
2022-09-04T16:21:59.089Z,1.50
2022-09-04T16:23:04.490Z,1.73
2022-09-04T16:24:29.657Z,1.60
2022-09-04T16:25:59.941Z,1.55
2022-09-04T16:27:07.383Z,1.60
2022-09-04T16:28:15.531Z,1.40
2022-09-04T16:29:40.323Z,1.65
2022-09-04T16:30:47.140Z,1.50
2022-09-04T16:31:54.997Z,1.90
2022-09-04T16:32:58.446Z,1.40
2022-09-04T16:34:12.948Z,1.50
2022-09-04T16:35:21.315Z,1.65
2022-09-04T16:36:40.602Z,1.55
2022-09-04T16:37:53.112Z,1.50
2022-09-04T16:39:06.276Z,1.67
2022-09-04T16:40:11.846Z,1.73
2022-09-04T16:41:59.462Z,1.50
2022-09-04T16:43:28.479Z,1.63
2022-09-04T16:44:47.675Z,1.70
2022-09-04T16:46:00.091Z,1.52
2022-09-04T16:47:26.981Z,1.75
2022-09-04T16:48:39.897Z,1.60
2022-09-04T16:49:47.472Z,1.70
2022-09-04T16:50:56.196Z,1.65
2022-09-04T16:52:22.698Z,1.73
2022-09-04T16:53:55.990Z,1.55
2022-09-04T16:56:49.651Z,1.80
2022-09-04T16:58:07.264Z,1.67
2022-09-04T16:59:31.427Z,1.60
2022-09-04T17:00:51.658Z,1.70
2022-09-04T17:02:11.931Z,1.60
2022-09-04T17:03:25.259Z,1.70
2022-09-04T17:04:39.596Z,1.80
2022-09-04T17:05:49.327Z,1.67
2022-09-04T17:07:33.227Z,1.60
2022-09-04T17:08:41.199Z,1.60
2022-09-04T17:09:50.456Z,1.90
2022-09-04T17:10:58.072Z,1.77
2022-09-04T17:12:17.952Z,1.70
2022-09-04T17:13:48.423Z,1.80
2022-09-04T17:15:16.858Z,1.63
2022-09-04T17:16:24.082Z,1.60
2022-09-04T17:17:31.539Z,1.60
2022-09-04T17:18:36.557Z,1.60
2022-09-04T17:19:40.471Z,1.75
2022-09-04T17:24:25.294Z,2.00
2022-09-04T17:29:01.134Z,1.70
2022-09-04T17:29:01.179Z,1.80
2022-09-04T17:29:01.748Z,1.90
2022-09-04T17:29:09.736Z,1.70
2022-09-04T17:29:17.148Z,1.77
2022-09-04T17:30:06.316Z,1.90
2022-09-04T17:31:38.450Z,2.03
2022-09-04T17:40:25.082Z,2.20
2022-09-04T17:40:41.261Z,2.33
2022-09-04T17:40:41.349Z,1.92
2022-09-04T17:40:41.555Z,1.90
2022-09-04T17:40:49.874Z,2.17
2022-09-04T17:41:40.236Z,2.40
2022-09-04T17:43:21.598Z,2.20
2022-09-04T17:45:03.089Z,2.30
2022-09-04T17:46:32.552Z,2.30
2022-09-04T17:47:45.531Z,1.95
2022-09-04T17:48:47.163Z,2.05
2022-09-04T17:49:51.900Z,2.20
2022-09-04T17:50:57.324Z,2.10
2022-09-04T17:52:01.460Z,2.20
2022-09-04T17:53:12.085Z,2.20
2022-09-04T17:54:27.138Z,2.08
2022-09-04T17:55:38.693Z,1.92
2022-09-04T17:56:57.422Z,2.17
2022-09-04T17:58:24.314Z,2.30
2022-09-04T17:59:36.615Z,2.00
2022-09-04T18:01:14.255Z,2.30
2022-09-04T18:02:27.824Z,2.20
2022-09-04T18:03:34.319Z,2.28
2022-09-04T18:04:47.464Z,2.30
2022-09-04T18:05:53.535Z,2.30
2022-09-04T18:08:08.598Z,2.30
2022-09-04T18:09:12.883Z,2.22
2022-09-04T18:10:37.429Z,2.20